KAMW

Ames Municipal Airport

Ames, Iowa, USA
METAR KAMW 241253Z AUTO 15007KT 10SM CLR 22/18 A3009 RMK AO2 SLP179 T02170183
Observed Flight Rules
May-24 @ 12:53 UTC (an hour ago) Visual Flight Rules
Wind Visibility Clouds
150° at 7 knots 10 miles
  • Clear skies
Temperatures Readings
Current 22°C / 72°F
Dewpoint 18°C / 64°F
Humidity 78%
Altimeter 30.09" Hg
Pressure 1017.9 hPa
Elevation 279
METAR KAMW 241253Z AUTO 15007KT 10SM CLR 22/18 A3009 RMK AO2 SLP179 T02170183
Observed Flight Rules
May-24 @ 12:53 UTC
(an hour ago)
VFR
Wind Visibility
150° at 7 knots 10 miles
Clouds
  • Clear skies
Temperature Dewpoint
22°C / 72°F 18°C / 64°F
Humidity Altimeter Pressure
78% 30.09" Hg 1017.9 hPa